sensor_id;sensor_type;location;lat;lon;timestamp;temperature;humidity
56044;DHT22;41912;51.022;3.664;2023-11-21T00:02:13;9.80;99.90
56044;DHT22;41912;51.022;3.664;2023-11-21T00:04:39;9.80;99.90
56044;DHT22;41912;51.022;3.664;2023-11-21T00:07:05;9.80;99.90
56044;DHT22;41912;51.022;3.664;2023-11-21T00:09:34;9.90;99.90
56044;DHT22;41912;51.022;3.664;2023-11-21T00:12:02;9.90;99.90
56044;DHT22;41912;51.022;3.664;2023-11-21T00:14:27;9.90;99.90
56044;DHT22;41912;51.022;3.664;2023-11-21T00:16:53;9.90;99.90
56044;DHT22;41912;51.022;3.664;2023-11-21T00:19:19;9.90;99.90
56044;DHT22;41912;51.022;3.664;2023-11-21T00:21:45;9.90;99.90
56044;DHT22;41912;51.022;3.664;2023-11-21T00:24:11;9.90;99.90
56044;DHT22;41912;51.022;3.664;2023-11-21T00:26:39;9.90;99.90
56044;DHT22;41912;51.022;3.664;2023-11-21T00:29:05;9.90;99.90
56044;DHT22;41912;51.022;3.664;2023-11-21T00:31:35;9.90;99.90
56044;DHT22;41912;51.022;3.664;2023-11-21T00:34:04;9.90;99.90
56044;DHT22;41912;51.022;3.664;2023-11-21T00:36:31;10.00;99.90
56044;DHT22;41912;51.022;3.664;2023-11-21T00:38:57;9.90;99.90
56044;DHT22;41912;51.022;3.664;2023-11-21T00:41:23;10.00;99.90
56044;DHT22;41912;51.022;3.664;2023-11-21T00:43:48;10.00;99.90
56044;DHT22;41912;51.022;3.664;2023-11-21T00:46:14;10.00;99.90
56044;DHT22;41912;51.022;3.664;2023-11-21T00:48:40;10.00;99.90
56044;DHT22;41912;51.022;3.664;2023-11-21T00:51:06;10.00;99.90
56044;DHT22;41912;51.022;3.664;2023-11-21T00:53:32;10.00;99.90
56044;DHT22;41912;51.022;3.664;2023-11-21T00:55:57;10.00;99.90
56044;DHT22;41912;51.022;3.664;2023-11-21T00:58:26;10.00;99.90
56044;DHT22;41912;51.022;3.664;2023-11-21T01:00:52;10.10;99.90
56044;DHT22;41912;51.022;3.664;2023-11-21T01:03:18;10.00;99.90
56044;DHT22;41912;51.022;3.664;2023-11-21T01:05:44;10.10;99.90
56044;DHT22;41912;51.022;3.664;2023-11-21T01:08:11;10.10;99.90
56044;DHT22;41912;51.022;3.664;2023-11-21T01:10:36;10.10;99.90
56044;DHT22;41912;51.022;3.664;2023-11-21T01:13:03;10.10;99.90
56044;DHT22;41912;51.022;3.664;2023-11-21T01:15:30;10.10;99.90
56044;DHT22;41912;51.022;3.664;2023-11-21T01:17:56;10.10;99.90
56044;DHT22;41912;51.022;3.664;2023-11-21T01:20:21;10.20;99.90
56044;DHT22;41912;51.022;3.664;2023-11-21T01:22:47;10.10;99.90
56044;DHT22;41912;51.022;3.664;2023-11-21T01:25:14;10.10;99.90
56044;DHT22;41912;51.022;3.664;2023-11-21T01:27:41;10.10;99.90
56044;DHT22;41912;51.022;3.664;2023-11-21T01:30:07;10.10;99.90
56044;DHT22;41912;51.022;3.664;2023-11-21T01:32:36;10.10;99.90
56044;DHT22;41912;51.022;3.664;2023-11-21T01:35:01;10.10;99.90
56044;DHT22;41912;51.022;3.664;2023-11-21T01:37:27;10.10;99.90
56044;DHT22;41912;51.022;3.664;2023-11-21T01:39:56;10.10;99.90
56044;DHT22;41912;51.022;3.664;2023-11-21T01:42:21;10.10;99.90
56044;DHT22;41912;51.022;3.664;2023-11-21T01:44:47;10.10;99.90
56044;DHT22;41912;51.022;3.664;2023-11-21T01:47:14;10.10;99.90
56044;DHT22;41912;51.022;3.664;2023-11-21T01:49:43;10.20;99.90
56044;DHT22;41912;51.022;3.664;2023-11-21T01:52:09;10.20;99.90
56044;DHT22;41912;51.022;3.664;2023-11-21T01:54:37;10.20;99.90
56044;DHT22;41912;51.022;3.664;2023-11-21T01:57:04;10.20;99.90
56044;DHT22;41912;51.022;3.664;2023-11-21T01:59:38;10.20;99.90
56044;DHT22;41912;51.022;3.664;2023-11-21T02:02:08;10.20;99.90
56044;DHT22;41912;51.022;3.664;2023-11-21T02:04:34;10.20;99.90
56044;DHT22;41912;51.022;3.664;2023-11-21T02:07:01;10.20;99.90
56044;DHT22;41912;51.022;3.664;2023-11-21T02:09:27;10.20;99.90
56044;DHT22;41912;51.022;3.664;2023-11-21T02:11:53;10.20;99.90
56044;DHT22;41912;51.022;3.664;2023-11-21T02:14:20;10.20;99.90
56044;DHT22;41912;51.022;3.664;2023-11-21T02:16:51;10.20;99.90
56044;DHT22;41912;51.022;3.664;2023-11-21T02:19:22;10.20;99.90
56044;DHT22;41912;51.022;3.664;2023-11-21T02:21:56;10.20;99.90
56044;DHT22;41912;51.022;3.664;2023-11-21T02:24:28;10.20;99.90
56044;DHT22;41912;51.022;3.664;2023-11-21T02:26:54;10.20;99.90
56044;DHT22;41912;51.022;3.664;2023-11-21T02:29:21;10.30;99.90
56044;DHT22;41912;51.022;3.664;2023-11-21T02:31:54;10.30;99.90
56044;DHT22;41912;51.022;3.664;2023-11-21T02:34:21;10.30;99.90
56044;DHT22;41912;51.022;3.664;2023-11-21T02:36:47;10.30;99.90
56044;DHT22;41912;51.022;3.664;2023-11-21T02:39:17;10.30;99.90
56044;DHT22;41912;51.022;3.664;2023-11-21T02:41:43;10.30;99.90
56044;DHT22;41912;51.022;3.664;2023-11-21T02:44:09;10.40;99.90
56044;DHT22;41912;51.022;3.664;2023-11-21T02:46:36;10.30;99.90
56044;DHT22;41912;51.022;3.664;2023-11-21T02:49:04;10.30;99.90
56044;DHT22;41912;51.022;3.664;2023-11-21T02:51:32;10.30;99.90
56044;DHT22;41912;51.022;3.664;2023-11-21T02:53:57;10.40;99.90
56044;DHT22;41912;51.022;3.664;2023-11-21T02:56:28;10.40;99.90
56044;DHT22;41912;51.022;3.664;2023-11-21T02:58:57;10.30;99.90
56044;DHT22;41912;51.022;3.664;2023-11-21T03:01:23;10.40;99.90
56044;DHT22;41912;51.022;3.664;2023-11-21T03:03:53;10.40;99.90
56044;DHT22;41912;51.022;3.664;2023-11-21T03:06:19;10.40;99.90
56044;DHT22;41912;51.022;3.664;2023-11-21T03:08:45;10.40;99.90
56044;DHT22;41912;51.022;3.664;2023-11-21T03:11:11;10.40;99.90
56044;DHT22;41912;51.022;3.664;2023-11-21T03:13:38;10.40;99.90
56044;DHT22;41912;51.022;3.664;2023-11-21T03:16:05;10.50;99.90
56044;DHT22;41912;51.022;3.664;2023-11-21T03:18:31;10.40;99.90
56044;DHT22;41912;51.022;3.664;2023-11-21T03:20:57;10.40;99.90
56044;DHT22;41912;51.022;3.664;2023-11-21T03:23:23;10.40;99.90
56044;DHT22;41912;51.022;3.664;2023-11-21T03:25:48;10.50;99.90
56044;DHT22;41912;51.022;3.664;2023-11-21T03:28:14;10.50;99.90
56044;DHT22;41912;51.022;3.664;2023-11-21T03:30:39;10.50;99.90
56044;DHT22;41912;51.022;3.664;2023-11-21T03:33:05;10.50;99.90
56044;DHT22;41912;51.022;3.664;2023-11-21T03:35:31;10.50;99.90
56044;DHT22;41912;51.022;3.664;2023-11-21T03:37:56;10.50;99.90
56044;DHT22;41912;51.022;3.664;2023-11-21T03:40:22;10.50;99.90
56044;DHT22;41912;51.022;3.664;2023-11-21T03:42:48;10.50;99.90
56044;DHT22;41912;51.022;3.664;2023-11-21T03:45:13;10.50;99.90
56044;DHT22;41912;51.022;3.664;2023-11-21T03:47:41;10.50;99.90
56044;DHT22;41912;51.022;3.664;2023-11-21T03:50:07;10.50;99.90
56044;DHT22;41912;51.022;3.664;2023-11-21T03:52:34;10.50;99.90
56044;DHT22;41912;51.022;3.664;2023-11-21T03:55:00;10.50;99.90
56044;DHT22;41912;51.022;3.664;2023-11-21T03:57:26;10.60;99.90
56044;DHT22;41912;51.022;3.664;2023-11-21T03:59:53;10.50;99.90
56044;DHT22;41912;51.022;3.664;2023-11-21T04:02:19;10.60;99.90
56044;DHT22;41912;51.022;3.664;2023-11-21T04:04:45;10.60;99.90
56044;DHT22;41912;51.022;3.664;2023-11-21T04:07:10;10.60;99.90
56044;DHT22;41912;51.022;3.664;2023-11-21T04:09:36;10.60;99.90
56044;DHT22;41912;51.022;3.664;2023-11-21T04:12:02;10.60;99.90
56044;DHT22;41912;51.022;3.664;2023-11-21T04:14:28;10.60;99.90
56044;DHT22;41912;51.022;3.664;2023-11-21T04:16:54;10.60;99.90
56044;DHT22;41912;51.022;3.664;2023-11-21T04:19:19;10.70;99.90
56044;DHT22;41912;51.022;3.664;2023-11-21T04:21:45;10.60;99.90
56044;DHT22;41912;51.022;3.664;2023-11-21T04:24:11;10.70;99.90
56044;DHT22;41912;51.022;3.664;2023-11-21T04:26:37;10.60;99.90
56044;DHT22;41912;51.022;3.664;2023-11-21T04:29:03;10.60;99.90
56044;DHT22;41912;51.022;3.664;2023-11-21T04:31:30;10.70;99.90
56044;DHT22;41912;51.022;3.664;2023-11-21T04:33:55;10.70;99.90
56044;DHT22;41912;51.022;3.664;2023-11-21T04:36:21;10.70;99.90
56044;DHT22;41912;51.022;3.664;2023-11-21T04:38:46;10.70;99.90
56044;DHT22;41912;51.022;3.664;2023-11-21T04:41:12;10.70;99.90
56044;DHT22;41912;51.022;3.664;2023-11-21T04:43:38;10.70;99.90
56044;DHT22;41912;51.022;3.664;2023-11-21T04:46:03;10.70;99.90
56044;DHT22;41912;51.022;3.664;2023-11-21T04:48:29;10.70;99.90
56044;DHT22;41912;51.022;3.664;2023-11-21T04:50:54;10.70;99.90
56044;DHT22;41912;51.022;3.664;2023-11-21T04:53:20;10.70;99.90
56044;DHT22;41912;51.022;3.664;2023-11-21T04:55:46;10.70;99.90
56044;DHT22;41912;51.022;3.664;2023-11-21T04:58:12;10.70;99.90
56044;DHT22;41912;51.022;3.664;2023-11-21T05:00:38;10.80;99.90
56044;DHT22;41912;51.022;3.664;2023-11-21T05:03:04;10.80;99.90
56044;DHT22;41912;51.022;3.664;2023-11-21T05:05:30;10.80;99.90
56044;DHT22;41912;51.022;3.664;2023-11-21T05:07:56;10.80;99.90
56044;DHT22;41912;51.022;3.664;2023-11-21T05:10:22;10.90;99.90
56044;DHT22;41912;51.022;3.664;2023-11-21T05:12:48;10.80;99.90
56044;DHT22;41912;51.022;3.664;2023-11-21T05:15:16;10.90;99.90
56044;DHT22;41912;51.022;3.664;2023-11-21T05:17:42;10.80;99.90
56044;DHT22;41912;51.022;3.664;2023-11-21T05:20:13;10.80;99.90
56044;DHT22;41912;51.022;3.664;2023-11-21T05:22:40;10.90;99.90
56044;DHT22;41912;51.022;3.664;2023-11-21T05:25:07;10.90;99.90
56044;DHT22;41912;51.022;3.664;2023-11-21T05:27:34;10.90;99.90
56044;DHT22;41912;51.022;3.664;2023-11-21T05:30:01;10.90;99.90
56044;DHT22;41912;51.022;3.664;2023-11-21T05:32:28;10.90;99.90
56044;DHT22;41912;51.022;3.664;2023-11-21T05:34:53;10.90;99.90
56044;DHT22;41912;51.022;3.664;2023-11-21T05:37:19;10.90;99.90
56044;DHT22;41912;51.022;3.664;2023-11-21T05:39:45;10.90;99.90
56044;DHT22;41912;51.022;3.664;2023-11-21T05:42:10;10.90;99.90
56044;DHT22;41912;51.022;3.664;2023-11-21T05:44:37;10.90;99.90
56044;DHT22;41912;51.022;3.664;2023-11-21T05:47:03;11.00;99.90
56044;DHT22;41912;51.022;3.664;2023-11-21T05:49:29;10.90;99.90
56044;DHT22;41912;51.022;3.664;2023-11-21T05:51:56;10.90;99.90
56044;DHT22;41912;51.022;3.664;2023-11-21T05:54:22;10.90;99.90
56044;DHT22;41912;51.022;3.664;2023-11-21T05:56:49;11.00;99.90
56044;DHT22;41912;51.022;3.664;2023-11-21T05:59:15;10.90;99.90
56044;DHT22;41912;51.022;3.664;2023-11-21T06:01:40;11.00;99.90
56044;DHT22;41912;51.022;3.664;2023-11-21T06:04:06;11.00;99.90
56044;DHT22;41912;51.022;3.664;2023-11-21T06:06:33;11.00;99.90
56044;DHT22;41912;51.022;3.664;2023-11-21T06:08:59;11.00;99.90
56044;DHT22;41912;51.022;3.664;2023-11-21T06:11:25;11.00;99.90
56044;DHT22;41912;51.022;3.664;2023-11-21T06:13:51;11.00;99.90
56044;DHT22;41912;51.022;3.664;2023-11-21T06:16:18;11.00;99.90
56044;DHT22;41912;51.022;3.664;2023-11-21T06:18:45;11.00;99.90
56044;DHT22;41912;51.022;3.664;2023-11-21T06:21:11;11.00;99.90
56044;DHT22;41912;51.022;3.664;2023-11-21T06:23:37;11.00;99.90
56044;DHT22;41912;51.022;3.664;2023-11-21T06:26:03;11.00;99.90
56044;DHT22;41912;51.022;3.664;2023-11-21T06:28:30;10.90;99.90
56044;DHT22;41912;51.022;3.664;2023-11-21T06:30:56;10.90;99.90
56044;DHT22;41912;51.022;3.664;2023-11-21T06:33:23;10.90;99.90
56044;DHT22;41912;51.022;3.664;2023-11-21T06:35:49;10.90;99.90
56044;DHT22;41912;51.022;3.664;2023-11-21T06:38:15;10.90;99.90
56044;DHT22;41912;51.022;3.664;2023-11-21T06:40:40;10.90;99.90
56044;DHT22;41912;51.022;3.664;2023-11-21T06:43:06;10.90;99.90
56044;DHT22;41912;51.022;3.664;2023-11-21T06:45:33;10.90;99.90
56044;DHT22;41912;51.022;3.664;2023-11-21T06:48:00;10.90;99.90
56044;DHT22;41912;51.022;3.664;2023-11-21T06:50:25;10.90;99.90
56044;DHT22;41912;51.022;3.664;2023-11-21T06:52:51;10.90;99.90
56044;DHT22;41912;51.022;3.664;2023-11-21T06:55:17;10.90;99.90
56044;DHT22;41912;51.022;3.664;2023-11-21T06:57:42;10.90;99.90
56044;DHT22;41912;51.022;3.664;2023-11-21T07:00:10;10.90;99.90
56044;DHT22;41912;51.022;3.664;2023-11-21T07:02:37;10.90;99.90
56044;DHT22;41912;51.022;3.664;2023-11-21T07:05:02;10.70;99.90
56044;DHT22;41912;51.022;3.664;2023-11-21T07:07:28;10.90;99.90
56044;DHT22;41912;51.022;3.664;2023-11-21T07:09:54;10.90;99.90
56044;DHT22;41912;51.022;3.664;2023-11-21T07:12:20;10.90;99.90
56044;DHT22;41912;51.022;3.664;2023-11-21T07:14:49;10.90;99.90
56044;DHT22;41912;51.022;3.664;2023-11-21T07:17:14;10.90;99.90
56044;DHT22;41912;51.022;3.664;2023-11-21T07:19:40;10.90;99.90
56044;DHT22;41912;51.022;3.664;2023-11-21T07:22:06;10.90;99.90
56044;DHT22;41912;51.022;3.664;2023-11-21T07:24:34;11.00;99.90
56044;DHT22;41912;51.022;3.664;2023-11-21T07:27:01;10.90;99.90
56044;DHT22;41912;51.022;3.664;2023-11-21T07:29:27;11.00;99.90
56044;DHT22;41912;51.022;3.664;2023-11-21T07:31:54;11.00;99.90
56044;DHT22;41912;51.022;3.664;2023-11-21T07:34:21;11.00;99.90
56044;DHT22;41912;51.022;3.664;2023-11-21T07:36:47;11.00;99.90
56044;DHT22;41912;51.022;3.664;2023-11-21T07:39:12;11.00;99.90
56044;DHT22;41912;51.022;3.664;2023-11-21T07:41:38;11.00;99.90
56044;DHT22;41912;51.022;3.664;2023-11-21T07:44:10;11.00;99.90
56044;DHT22;41912;51.022;3.664;2023-11-21T07:46:36;11.00;99.90
56044;DHT22;41912;51.022;3.664;2023-11-21T07:49:01;11.00;99.90
56044;DHT22;41912;51.022;3.664;2023-11-21T07:51:27;11.10;99.90
56044;DHT22;41912;51.022;3.664;2023-11-21T07:53:52;11.10;99.90
56044;DHT22;41912;51.022;3.664;2023-11-21T07:56:18;11.10;99.90
56044;DHT22;41912;51.022;3.664;2023-11-21T07:58:44;11.10;99.90
56044;DHT22;41912;51.022;3.664;2023-11-21T08:01:10;11.10;99.90
56044;DHT22;41912;51.022;3.664;2023-11-21T08:03:37;11.20;99.90
56044;DHT22;41912;51.022;3.664;2023-11-21T08:06:02;11.20;99.90
56044;DHT22;41912;51.022;3.664;2023-11-21T08:08:31;11.20;99.90
56044;DHT22;41912;51.022;3.664;2023-11-21T08:10:57;11.20;99.90
56044;DHT22;41912;51.022;3.664;2023-11-21T08:13:27;11.20;99.90
56044;DHT22;41912;51.022;3.664;2023-11-21T08:15:57;11.20;99.90
56044;DHT22;41912;51.022;3.664;2023-11-21T08:18:27;11.30;99.90
56044;DHT22;41912;51.022;3.664;2023-11-21T08:20:52;11.30;99.90
56044;DHT22;41912;51.022;3.664;2023-11-21T08:23:20;11.20;99.90
56044;DHT22;41912;51.022;3.664;2023-11-21T08:25:46;11.30;99.90
56044;DHT22;41912;51.022;3.664;2023-11-21T08:28:13;11.30;99.90
56044;DHT22;41912;51.022;3.664;2023-11-21T08:30:41;11.30;99.90
56044;DHT22;41912;51.022;3.664;2023-11-21T08:33:07;11.30;99.90
56044;DHT22;41912;51.022;3.664;2023-11-21T08:35:34;11.40;99.90
56044;DHT22;41912;51.022;3.664;2023-11-21T08:37:59;11.30;99.90
56044;DHT22;41912;51.022;3.664;2023-11-21T08:40:25;11.30;99.90
56044;DHT22;41912;51.022;3.664;2023-11-21T08:42:51;11.30;99.90
56044;DHT22;41912;51.022;3.664;2023-11-21T08:45:18;11.30;99.90
56044;DHT22;41912;51.022;3.664;2023-11-21T08:47:44;11.30;99.90
56044;DHT22;41912;51.022;3.664;2023-11-21T08:50:10;11.30;99.90
56044;DHT22;41912;51.022;3.664;2023-11-21T08:52:40;11.30;99.90
56044;DHT22;41912;51.022;3.664;2023-11-21T08:55:07;11.30;99.90
56044;DHT22;41912;51.022;3.664;2023-11-21T08:57:38;11.40;99.90
56044;DHT22;41912;51.022;3.664;2023-11-21T09:00:05;11.40;99.90
56044;DHT22;41912;51.022;3.664;2023-11-21T09:02:35;11.50;99.90
56044;DHT22;41912;51.022;3.664;2023-11-21T09:05:03;11.50;99.90
56044;DHT22;41912;51.022;3.664;2023-11-21T09:07:29;11.50;99.90
56044;DHT22;41912;51.022;3.664;2023-11-21T09:09:55;11.50;99.90
56044;DHT22;41912;51.022;3.664;2023-11-21T09:12:21;11.60;99.90
56044;DHT22;41912;51.022;3.664;2023-11-21T09:14:47;11.60;99.90
56044;DHT22;41912;51.022;3.664;2023-11-21T09:17:13;11.70;99.90
56044;DHT22;41912;51.022;3.664;2023-11-21T09:19:40;11.70;99.90
56044;DHT22;41912;51.022;3.664;2023-11-21T09:22:06;11.80;99.90
56044;DHT22;41912;51.022;3.664;2023-11-21T09:24:32;11.80;99.90
56044;DHT22;41912;51.022;3.664;2023-11-21T09:26:58;11.90;99.90
56044;DHT22;41912;51.022;3.664;2023-11-21T09:29:25;11.90;99.90
56044;DHT22;41912;51.022;3.664;2023-11-21T09:31:51;12.00;99.90
56044;DHT22;41912;51.022;3.664;2023-11-21T09:34:17;12.00;99.90
56044;DHT22;41912;51.022;3.664;2023-11-21T09:36:46;12.10;99.90
56044;DHT22;41912;51.022;3.664;2023-11-21T09:39:11;12.10;99.90
56044;DHT22;41912;51.022;3.664;2023-11-21T09:44:18;12.20;99.90
56044;DHT22;41912;51.022;3.664;2023-11-21T09:46:46;12.20;99.90
56044;DHT22;41912;51.022;3.664;2023-11-21T09:49:13;12.20;99.90
56044;DHT22;41912;51.022;3.664;2023-11-21T09:51:42;12.20;99.90
56044;DHT22;41912;51.022;3.664;2023-11-21T09:54:10;12.30;99.90
56044;DHT22;41912;51.022;3.664;2023-11-21T09:56:37;12.30;99.90
56044;DHT22;41912;51.022;3.664;2023-11-21T09:59:04;12.40;99.90
56044;DHT22;41912;51.022;3.664;2023-11-21T10:01:33;12.40;99.90
56044;DHT22;41912;51.022;3.664;2023-11-21T10:04:01;12.50;99.90
56044;DHT22;41912;51.022;3.664;2023-11-21T10:06:26;12.40;99.90
56044;DHT22;41912;51.022;3.664;2023-11-21T10:08:54;12.50;99.90
56044;DHT22;41912;51.022;3.664;2023-11-21T10:11:24;12.50;99.90
56044;DHT22;41912;51.022;3.664;2023-11-21T10:13:53;12.50;99.90
56044;DHT22;41912;51.022;3.664;2023-11-21T10:16:20;12.60;99.90
56044;DHT22;41912;51.022;3.664;2023-11-21T10:18:52;12.60;99.90
56044;DHT22;41912;51.022;3.664;2023-11-21T10:21:21;12.60;99.90
56044;DHT22;41912;51.022;3.664;2023-11-21T10:23:47;12.60;99.90
56044;DHT22;41912;51.022;3.664;2023-11-21T10:26:13;12.60;99.90
56044;DHT22;41912;51.022;3.664;2023-11-21T10:29:01;12.60;99.90
56044;DHT22;41912;51.022;3.664;2023-11-21T10:31:30;12.70;99.90
56044;DHT22;41912;51.022;3.664;2023-11-21T10:34:16;12.70;99.90
56044;DHT22;41912;51.022;3.664;2023-11-21T10:36:42;12.70;99.90
56044;DHT22;41912;51.022;3.664;2023-11-21T10:39:08;12.70;99.90
56044;DHT22;41912;51.022;3.664;2023-11-21T10:41:35;12.80;99.90
56044;DHT22;41912;51.022;3.664;2023-11-21T10:44:01;12.80;99.90
56044;DHT22;41912;51.022;3.664;2023-11-21T10:46:31;12.80;99.90
56044;DHT22;41912;51.022;3.664;2023-11-21T10:48:57;12.90;99.90
56044;DHT22;41912;51.022;3.664;2023-11-21T10:51:23;12.90;99.90
56044;DHT22;41912;51.022;3.664;2023-11-21T10:53:54;13.00;99.90
56044;DHT22;41912;51.022;3.664;2023-11-21T10:56:23;13.00;99.90
56044;DHT22;41912;51.022;3.664;2023-11-21T10:58:49;13.10;99.90
56044;DHT22;41912;51.022;3.664;2023-11-21T11:01:19;13.10;99.90
56044;DHT22;41912;51.022;3.664;2023-11-21T11:03:50;13.10;99.90
56044;DHT22;41912;51.022;3.664;2023-11-21T11:06:16;13.10;99.90
56044;DHT22;41912;51.022;3.664;2023-11-21T11:08:42;13.10;99.90
56044;DHT22;41912;51.022;3.664;2023-11-21T11:11:09;13.10;99.90
56044;DHT22;41912;51.022;3.664;2023-11-21T11:13:35;13.10;99.90
56044;DHT22;41912;51.022;3.664;2023-11-21T11:16:04;13.10;99.90
56044;DHT22;41912;51.022;3.664;2023-11-21T11:18:33;13.10;99.90
56044;DHT22;41912;51.022;3.664;2023-11-21T11:21:21;13.10;99.90
56044;DHT22;41912;51.022;3.664;2023-11-21T11:27:27;13.10;99.90
56044;DHT22;41912;51.022;3.664;2023-11-21T11:32:40;13.00;99.90
56044;DHT22;41912;51.022;3.664;2023-11-21T11:35:19;13.00;99.90
56044;DHT22;41912;51.022;3.664;2023-11-21T11:37:49;13.00;99.90
56044;DHT22;41912;51.022;3.664;2023-11-21T11:40:14;13.00;99.90
56044;DHT22;41912;51.022;3.664;2023-11-21T11:42:56;13.00;99.90
56044;DHT22;41912;51.022;3.664;2023-11-21T11:45:25;13.00;99.90
56044;DHT22;41912;51.022;3.664;2023-11-21T11:47:57;13.00;99.90
56044;DHT22;41912;51.022;3.664;2023-11-21T11:50:23;12.90;99.90
56044;DHT22;41912;51.022;3.664;2023-11-21T11:52:53;12.90;99.90
56044;DHT22;41912;51.022;3.664;2023-11-21T11:55:24;12.90;99.90
56044;DHT22;41912;51.022;3.664;2023-11-21T12:00:22;13.00;99.90
56044;DHT22;41912;51.022;3.664;2023-11-21T12:02:58;13.00;99.90
56044;DHT22;41912;51.022;3.664;2023-11-21T12:05:25;13.00;99.90
56044;DHT22;41912;51.022;3.664;2023-11-21T12:07:57;13.00;99.90
56044;DHT22;41912;51.022;3.664;2023-11-21T12:10:27;13.10;99.90
56044;DHT22;41912;51.022;3.664;2023-11-21T12:13:05;13.20;99.90
56044;DHT22;41912;51.022;3.664;2023-11-21T12:15:36;13.20;99.90
56044;DHT22;41912;51.022;3.664;2023-11-21T12:18:02;13.20;99.90
56044;DHT22;41912;51.022;3.664;2023-11-21T12:20:28;13.20;99.90
56044;DHT22;41912;51.022;3.664;2023-11-21T12:22:55;13.10;99.90
56044;DHT22;41912;51.022;3.664;2023-11-21T12:25:23;13.10;99.90
56044;DHT22;41912;51.022;3.664;2023-11-21T12:27:53;13.10;99.90
56044;DHT22;41912;51.022;3.664;2023-11-21T12:30:23;13.10;99.90
56044;DHT22;41912;51.022;3.664;2023-11-21T12:32:53;13.00;99.90
56044;DHT22;41912;51.022;3.664;2023-11-21T12:35:24;13.00;99.90
56044;DHT22;41912;51.022;3.664;2023-11-21T12:37:51;13.00;99.90
56044;DHT22;41912;51.022;3.664;2023-11-21T12:40:18;13.00;99.90
56044;DHT22;41912;51.022;3.664;2023-11-21T12:42:46;12.90;99.90
56044;DHT22;41912;51.022;3.664;2023-11-21T12:47:46;12.90;99.90
56044;DHT22;41912;51.022;3.664;2023-11-21T12:50:13;13.00;99.90
56044;DHT22;41912;51.022;3.664;2023-11-21T12:52:45;13.00;99.90
56044;DHT22;41912;51.022;3.664;2023-11-21T12:55:22;12.90;99.90
56044;DHT22;41912;51.022;3.664;2023-11-21T12:57:49;12.90;99.90
56044;DHT22;41912;51.022;3.664;2023-11-21T13:00:17;12.90;99.90
56044;DHT22;41912;51.022;3.664;2023-11-21T13:02:56;13.00;99.90
56044;DHT22;41912;51.022;3.664;2023-11-21T13:05:39;13.00;99.90
56044;DHT22;41912;51.022;3.664;2023-11-21T13:08:08;13.00;99.90
56044;DHT22;41912;51.022;3.664;2023-11-21T13:10:37;13.00;99.90
56044;DHT22;41912;51.022;3.664;2023-11-21T13:13:06;13.00;99.90
56044;DHT22;41912;51.022;3.664;2023-11-21T13:15:39;13.00;99.90
56044;DHT22;41912;51.022;3.664;2023-11-21T13:18:06;13.00;99.90
56044;DHT22;41912;51.022;3.664;2023-11-21T13:20:32;13.10;99.90
56044;DHT22;41912;51.022;3.664;2023-11-21T13:22:59;13.00;99.90
56044;DHT22;41912;51.022;3.664;2023-11-21T13:25:27;13.00;99.90
56044;DHT22;41912;51.022;3.664;2023-11-21T13:27:56;13.10;99.90
56044;DHT22;41912;51.022;3.664;2023-11-21T13:30:22;13.10;99.90
56044;DHT22;41912;51.022;3.664;2023-11-21T13:32:55;13.10;99.90
56044;DHT22;41912;51.022;3.664;2023-11-21T13:35:28;13.10;99.90
56044;DHT22;41912;51.022;3.664;2023-11-21T13:38:12;13.10;99.90
56044;DHT22;41912;51.022;3.664;2023-11-21T13:40:39;13.10;99.90
56044;DHT22;41912;51.022;3.664;2023-11-21T13:43:10;13.10;99.90
56044;DHT22;41912;51.022;3.664;2023-11-21T13:45:40;13.10;99.90
56044;DHT22;41912;51.022;3.664;2023-11-21T13:48:06;13.10;99.90
56044;DHT22;41912;51.022;3.664;2023-11-21T13:50:48;13.10;99.90
56044;DHT22;41912;51.022;3.664;2023-11-21T13:53:32;13.10;99.90
56044;DHT22;41912;51.022;3.664;2023-11-21T13:55:58;13.10;99.90
56044;DHT22;41912;51.022;3.664;2023-11-21T13:58:24;13.10;99.90
56044;DHT22;41912;51.022;3.664;2023-11-21T14:01:00;13.10;99.90
56044;DHT22;41912;51.022;3.664;2023-11-21T14:03:31;13.10;99.90
56044;DHT22;41912;51.022;3.664;2023-11-21T14:06:10;13.20;99.90
56044;DHT22;41912;51.022;3.664;2023-11-21T14:08:40;13.10;99.90
56044;DHT22;41912;51.022;3.664;2023-11-21T14:11:07;13.20;99.90
56044;DHT22;41912;51.022;3.664;2023-11-21T14:13:33;13.20;99.90
56044;DHT22;41912;51.022;3.664;2023-11-21T14:15:59;13.10;99.90
56044;DHT22;41912;51.022;3.664;2023-11-21T14:18:29;13.20;99.90
56044;DHT22;41912;51.022;3.664;2023-11-21T14:21:04;13.20;99.90
56044;DHT22;41912;51.022;3.664;2023-11-21T14:23:31;13.20;99.90
56044;DHT22;41912;51.022;3.664;2023-11-21T14:25:58;13.20;99.90
56044;DHT22;41912;51.022;3.664;2023-11-21T14:28:26;13.10;99.90
56044;DHT22;41912;51.022;3.664;2023-11-21T14:30:52;13.20;99.90
56044;DHT22;41912;51.022;3.664;2023-11-21T14:33:17;13.10;99.90
56044;DHT22;41912;51.022;3.664;2023-11-21T14:35:43;13.10;99.90
56044;DHT22;41912;51.022;3.664;2023-11-21T14:38:10;13.10;99.90
56044;DHT22;41912;51.022;3.664;2023-11-21T14:40:36;13.10;99.90
56044;DHT22;41912;51.022;3.664;2023-11-21T14:43:02;13.30;99.90
56044;DHT22;41912;51.022;3.664;2023-11-21T14:45:34;13.10;99.90
56044;DHT22;41912;51.022;3.664;2023-11-21T14:48:00;13.00;99.90
56044;DHT22;41912;51.022;3.664;2023-11-21T14:50:40;13.00;99.90
56044;DHT22;41912;51.022;3.664;2023-11-21T14:53:35;13.00;99.90
56044;DHT22;41912;51.022;3.664;2023-11-21T14:56:22;13.00;99.90
56044;DHT22;41912;51.022;3.664;2023-11-21T14:58:53;13.00;99.90
56044;DHT22;41912;51.022;3.664;2023-11-21T15:01:20;13.00;99.90
56044;DHT22;41912;51.022;3.664;2023-11-21T15:03:59;13.00;99.90
56044;DHT22;41912;51.022;3.664;2023-11-21T15:06:24;12.90;99.90
56044;DHT22;41912;51.022;3.664;2023-11-21T15:08:54;12.90;99.90
56044;DHT22;41912;51.022;3.664;2023-11-21T15:11:42;12.90;99.90
56044;DHT22;41912;51.022;3.664;2023-11-21T15:14:08;12.90;99.90
56044;DHT22;41912;51.022;3.664;2023-11-21T15:16:35;12.90;99.90
56044;DHT22;41912;51.022;3.664;2023-11-21T15:19:11;12.90;99.90
56044;DHT22;41912;51.022;3.664;2023-11-21T15:21:43;12.90;99.90
56044;DHT22;41912;51.022;3.664;2023-11-21T15:24:10;12.90;99.90
56044;DHT22;41912;51.022;3.664;2023-11-21T15:26:36;13.00;99.90
56044;DHT22;41912;51.022;3.664;2023-11-21T15:29:01;13.00;99.90
56044;DHT22;41912;51.022;3.664;2023-11-21T15:31:27;12.90;99.90
56044;DHT22;41912;51.022;3.664;2023-11-21T15:33:53;12.90;99.90
56044;DHT22;41912;51.022;3.664;2023-11-21T15:36:19;12.90;99.90
56044;DHT22;41912;51.022;3.664;2023-11-21T15:38:46;12.90;99.90
56044;DHT22;41912;51.022;3.664;2023-11-21T15:41:11;12.90;99.90
56044;DHT22;41912;51.022;3.664;2023-11-21T15:43:37;12.90;99.90
56044;DHT22;41912;51.022;3.664;2023-11-21T15:46:03;12.90;99.90
56044;DHT22;41912;51.022;3.664;2023-11-21T15:48:34;12.80;99.90
56044;DHT22;41912;51.022;3.664;2023-11-21T15:51:00;12.80;99.90